createdAt,value
2023-05-03T00:01:55.606Z,14.20
2023-05-03T00:04:27.276Z,14.23
2023-05-03T00:06:59.393Z,14.22
2023-05-03T00:09:31.477Z,14.20
2023-05-03T00:12:06.181Z,14.19
2023-05-03T00:14:37.839Z,14.20
2023-05-03T00:17:09.977Z,14.20
2023-05-03T00:19:42.868Z,14.21
2023-05-03T00:22:14.653Z,14.24
2023-05-03T00:24:46.470Z,14.24
2023-05-03T00:27:19.410Z,14.27
2023-05-03T00:29:52.681Z,14.28
2023-05-03T00:32:24.271Z,14.31
2023-05-03T00:34:56.833Z,14.30
2023-05-03T00:37:30.034Z,14.34
2023-05-03T00:40:02.251Z,14.40
2023-05-03T00:42:36.987Z,14.46
2023-05-03T00:45:09.529Z,14.49
2023-05-03T00:47:41.306Z,14.48
2023-05-03T00:50:13.005Z,14.49
2023-05-03T00:52:44.771Z,14.48
2023-05-03T00:55:16.552Z,14.49
2023-05-03T00:57:48.170Z,14.46
2023-05-03T01:00:20.553Z,14.44
2023-05-03T01:02:52.948Z,14.45
2023-05-03T01:05:24.656Z,14.45
2023-05-03T01:08:16.339Z,14.44
2023-05-03T01:10:50.817Z,14.42
2023-05-03T01:13:37.678Z,14.40
2023-05-03T01:16:21.509Z,14.38
2023-05-03T01:18:53.424Z,14.36
2023-05-03T01:21:26.303Z,14.36
2023-05-03T01:24:19.586Z,14.33
2023-05-03T01:26:51.496Z,14.30
2023-05-03T01:29:23.157Z,14.28
2023-05-03T01:31:58.632Z,14.26
2023-05-03T01:34:36.553Z,14.22
2023-05-03T01:37:08.226Z,14.20
2023-05-03T01:39:49.052Z,14.19
2023-05-03T01:42:20.702Z,14.15
2023-05-03T01:44:52.563Z,14.16
2023-05-03T01:47:24.209Z,14.12
2023-05-03T01:49:56.355Z,14.09
2023-05-03T01:52:28.058Z,14.05
2023-05-03T01:55:00.175Z,14.03
2023-05-03T01:57:31.784Z,14.00
2023-05-03T02:00:04.575Z,14.01
2023-05-03T02:02:38.659Z,13.97
2023-05-03T02:05:11.644Z,13.97
2023-05-03T02:07:43.628Z,13.96
2023-05-03T02:10:16.425Z,13.96
2023-05-03T02:12:48.125Z,13.93
2023-05-03T02:15:21.548Z,13.91
2023-05-03T02:17:54.376Z,13.92
2023-05-03T02:20:27.388Z,13.91
2023-05-03T02:22:59.653Z,13.89
2023-05-03T02:25:31.993Z,13.87
2023-05-03T02:28:03.889Z,13.86
2023-05-03T02:30:36.515Z,13.84
2023-05-03T02:33:08.406Z,13.81
2023-05-03T02:35:40.727Z,13.77
2023-05-03T02:38:12.307Z,13.75
2023-05-03T02:40:44.088Z,13.72
2023-05-03T02:43:15.950Z,13.70
2023-05-03T02:45:47.720Z,13.65
2023-05-03T02:48:20.621Z,13.63
2023-05-03T02:50:54.606Z,13.59
2023-05-03T02:53:26.937Z,13.56
2023-05-03T02:55:59.105Z,13.55
2023-05-03T02:58:31.136Z,13.54
2023-05-03T03:01:03.332Z,13.55
2023-05-03T03:03:35.523Z,13.55
2023-05-03T03:06:07.452Z,13.55
2023-05-03T03:08:39.535Z,13.54
2023-05-03T03:11:11.616Z,13.57
2023-05-03T03:13:43.574Z,13.55
2023-05-03T03:16:15.604Z,13.56
2023-05-03T03:18:47.478Z,13.56
2023-05-03T03:21:19.452Z,13.56
2023-05-03T03:23:51.540Z,13.56
2023-05-03T03:26:23.265Z,13.59
2023-05-03T03:28:55.055Z,13.60
2023-05-03T03:31:27.360Z,13.60
2023-05-03T03:33:59.159Z,13.62
2023-05-03T03:36:31.766Z,13.64
2023-05-03T03:39:04.146Z,13.65
2023-05-03T03:41:37.048Z,13.67
2023-05-03T03:44:09.310Z,13.69
2023-05-03T03:46:42.006Z,13.71
2023-05-03T03:49:13.906Z,13.73
2023-05-03T03:51:45.967Z,13.74
2023-05-03T03:54:18.217Z,13.76
2023-05-03T03:56:51.173Z,13.79
2023-05-03T03:59:23.090Z,13.82
2023-05-03T04:01:55.231Z,13.85
2023-05-03T04:04:28.353Z,13.86
2023-05-03T04:07:00.513Z,13.84
2023-05-03T04:09:33.596Z,13.85
2023-05-03T04:12:05.883Z,13.89
2023-05-03T04:14:39.501Z,13.95
2023-05-03T04:17:12.786Z,13.99
2023-05-03T04:19:44.892Z,14.05
2023-05-03T04:22:17.099Z,14.12
2023-05-03T04:24:48.982Z,14.20
2023-05-03T04:27:20.647Z,14.30
2023-05-03T04:30:00.267Z,14.39
2023-05-03T04:32:34.100Z,14.44
2023-05-03T04:35:10.876Z,14.53
2023-05-03T04:37:45.694Z,14.62
2023-05-03T04:40:19.827Z,14.71
2023-05-03T04:42:53.319Z,14.80
2023-05-03T04:45:26.955Z,14.93
2023-05-03T04:47:58.952Z,15.03
2023-05-03T04:50:30.702Z,15.12
2023-05-03T04:53:02.909Z,15.23
2023-05-03T04:55:37.043Z,15.37
2023-05-03T04:58:08.975Z,15.46
2023-05-03T05:00:43.239Z,15.53
2023-05-03T05:03:17.045Z,15.61
2023-05-03T05:05:48.813Z,15.72
2023-05-03T05:08:21.826Z,15.88
2023-05-03T05:10:55.069Z,16.05
2023-05-03T05:13:28.291Z,16.23
2023-05-03T05:16:01.024Z,16.37
2023-05-03T05:18:33.087Z,16.50
2023-05-03T05:21:06.853Z,16.59
2023-05-03T05:23:39.113Z,16.64
2023-05-03T05:26:11.044Z,16.74
2023-05-03T05:28:43.272Z,16.84
2023-05-03T05:31:15.709Z,16.95
2023-05-03T05:33:47.288Z,17.06
2023-05-03T05:36:19.031Z,17.18
2023-05-03T05:39:00.004Z,17.37
2023-05-03T05:41:32.537Z,17.57
2023-05-03T05:44:04.640Z,17.66
2023-05-03T05:46:36.950Z,17.75
2023-05-03T05:49:08.809Z,17.93
2023-05-03T05:51:41.492Z,18.04
2023-05-03T05:54:14.403Z,18.05
2023-05-03T05:56:46.746Z,18.08
2023-05-03T05:59:18.672Z,18.17
2023-05-03T06:01:50.503Z,18.24
2023-05-03T06:04:23.809Z,18.26
2023-05-03T06:06:55.829Z,18.39
2023-05-03T06:09:27.509Z,18.53
2023-05-03T06:12:01.336Z,18.68
2023-05-03T06:14:34.999Z,18.80
2023-05-03T06:17:07.375Z,18.88
2023-05-03T06:19:40.373Z,18.95
2023-05-03T06:22:13.151Z,18.98
2023-05-03T06:24:45.298Z,19.07
2023-05-03T06:27:17.568Z,19.28
2023-05-03T06:29:50.258Z,19.47
2023-05-03T06:32:24.869Z,19.61
2023-05-03T06:34:58.432Z,19.67
2023-05-03T06:37:30.429Z,19.71
2023-05-03T06:40:02.373Z,19.71
2023-05-03T06:42:34.424Z,19.79
2023-05-03T06:45:13.775Z,19.97
2023-05-03T06:47:46.166Z,20.16
2023-05-03T06:50:19.470Z,20.33
2023-05-03T06:52:52.131Z,20.44
2023-05-03T06:55:23.641Z,20.54
2023-05-03T06:57:55.378Z,20.69
2023-05-03T07:00:27.543Z,20.73
2023-05-03T07:02:59.488Z,20.76
2023-05-03T07:05:31.674Z,20.92
2023-05-03T07:08:03.813Z,21.05
2023-05-03T07:10:36.687Z,21.14
2023-05-03T07:13:08.557Z,21.26
2023-05-03T07:15:40.858Z,21.39
2023-05-03T07:18:12.963Z,21.54
2023-05-03T07:20:44.816Z,21.67
2023-05-03T07:23:16.885Z,21.70
2023-05-03T07:25:48.819Z,21.71
2023-05-03T07:28:20.725Z,21.71
2023-05-03T07:30:52.804Z,21.68
2023-05-03T07:33:24.763Z,21.69
2023-05-03T07:35:56.730Z,21.78
2023-05-03T07:38:28.432Z,21.84
2023-05-03T07:41:00.215Z,21.77
2023-05-03T07:43:32.261Z,21.76
2023-05-03T07:46:03.959Z,21.91
2023-05-03T07:48:36.225Z,21.99
2023-05-03T07:51:08.057Z,22.05
2023-05-03T07:53:40.462Z,22.14
2023-05-03T07:56:12.533Z,22.29
2023-05-03T07:58:46.692Z,22.44
2023-05-03T08:01:17.865Z,22.52
2023-05-03T08:03:52.530Z,22.58
2023-05-03T08:06:24.988Z,22.56
2023-05-03T08:08:56.886Z,22.59
2023-05-03T08:11:29.306Z,22.55
2023-05-03T08:14:01.172Z,22.46
2023-05-03T08:16:33.113Z,22.50
2023-05-03T08:19:05.140Z,22.77
2023-05-03T08:21:38.297Z,22.97
2023-05-03T08:24:13.673Z,23.08
2023-05-03T08:26:46.410Z,23.28
2023-05-03T08:29:18.198Z,23.41
2023-05-03T08:31:50.094Z,23.55
2023-05-03T08:34:22.558Z,23.73
2023-05-03T08:36:54.688Z,23.94
2023-05-03T08:39:31.346Z,24.04
2023-05-03T08:42:04.821Z,24.09
2023-05-03T08:44:42.198Z,24.28
2023-05-03T08:47:16.491Z,24.35
2023-05-03T08:49:48.172Z,24.13
2023-05-03T08:52:21.275Z,23.85
2023-05-03T08:54:53.028Z,23.69
2023-05-03T08:57:26.009Z,23.62
2023-05-03T08:59:59.362Z,23.68
2023-05-03T09:02:33.290Z,23.88
2023-05-03T09:05:08.212Z,24.11
2023-05-03T09:07:40.461Z,24.34
2023-05-03T09:10:24.798Z,24.51
2023-05-03T09:13:01.626Z,24.67
2023-05-03T09:15:33.728Z,24.77
2023-05-03T09:18:18.064Z,24.74
2023-05-03T09:20:52.788Z,24.66
2023-05-03T09:23:31.403Z,24.58
2023-05-03T09:26:03.414Z,24.49
2023-05-03T09:28:44.348Z,24.57
2023-05-03T09:31:16.317Z,24.48
2023-05-03T09:33:47.909Z,24.51
2023-05-03T09:36:19.786Z,24.47
2023-05-03T09:38:52.594Z,24.47
2023-05-03T09:41:31.136Z,24.36
2023-05-03T09:44:03.204Z,24.44
2023-05-03T09:46:35.324Z,24.45
2023-05-03T09:49:08.006Z,24.49
2023-05-03T09:51:41.763Z,24.53
2023-05-03T09:54:13.528Z,24.64
2023-05-03T09:56:45.239Z,24.74
2023-05-03T09:59:17.271Z,24.78
2023-05-03T10:01:49.238Z,24.92
2023-05-03T10:04:22.379Z,24.94
2023-05-03T10:06:54.917Z,25.10
2023-05-03T10:09:39.977Z,25.31
2023-05-03T10:12:16.988Z,25.36
2023-05-03T10:14:49.561Z,25.38
2023-05-03T10:17:32.321Z,25.44
2023-05-03T10:20:00.564Z,25.63
2023-05-03T10:22:32.530Z,25.71
2023-05-03T10:25:08.014Z,25.67
2023-05-03T10:27:48.276Z,25.43
2023-05-03T10:30:36.117Z,25.14
2023-05-03T10:33:17.467Z,24.91
2023-05-03T10:35:53.235Z,24.66
2023-05-03T10:38:26.211Z,24.59
2023-05-03T10:40:59.240Z,24.66
2023-05-03T10:43:34.139Z,24.73
2023-05-03T10:46:07.801Z,24.64
2023-05-03T10:48:39.556Z,24.75
2023-05-03T10:51:34.032Z,24.83
2023-05-03T10:54:06.014Z,24.87
2023-05-03T10:56:48.666Z,24.87
2023-05-03T10:59:21.151Z,24.91
2023-05-03T11:01:53.858Z,25.00
2023-05-03T11:04:31.048Z,25.09
2023-05-03T11:07:02.556Z,25.15
2023-05-03T11:09:35.305Z,25.39
2023-05-03T11:12:08.717Z,25.63
2023-05-03T11:14:40.343Z,25.70
2023-05-03T11:17:12.278Z,25.78
2023-05-03T11:19:45.378Z,26.04
2023-05-03T11:22:17.167Z,26.40
2023-05-03T11:24:50.851Z,26.68
2023-05-03T11:27:26.563Z,26.66
2023-05-03T11:29:59.373Z,26.26
2023-05-03T11:32:31.447Z,25.85
2023-05-03T11:35:05.561Z,25.70
2023-05-03T11:37:37.597Z,25.82
2023-05-03T11:40:13.681Z,25.96
2023-05-03T11:42:59.825Z,26.04
2023-05-03T11:45:33.360Z,25.96
2023-05-03T11:48:05.186Z,25.89
2023-05-03T11:50:55.309Z,26.00
2023-05-03T11:53:28.135Z,26.11
2023-05-03T11:56:00.032Z,26.35
2023-05-03T11:58:32.139Z,26.47
2023-05-03T12:01:05.874Z,26.53
2023-05-03T12:03:38.338Z,26.35
2023-05-03T12:06:11.954Z,26.23
2023-05-03T12:08:45.232Z,26.31
2023-05-03T12:11:18.270Z,26.35
2023-05-03T12:13:58.987Z,26.30
2023-05-03T12:16:34.262Z,26.29
2023-05-03T12:19:08.810Z,26.31
2023-05-03T12:24:24.798Z,26.14
2023-05-03T12:26:57.886Z,26.01
2023-05-03T12:29:34.682Z,25.69
2023-05-03T12:32:06.080Z,25.51
2023-05-03T12:34:40.880Z,25.50
2023-05-03T12:37:12.220Z,25.61
2023-05-03T12:39:46.118Z,25.71
2023-05-03T12:42:19.496Z,25.79
2023-05-03T12:44:53.443Z,25.84
2023-05-03T12:47:28.837Z,25.90
2023-05-03T12:49:59.985Z,25.99
2023-05-03T12:52:38.023Z,26.00
2023-05-03T12:55:11.330Z,25.95
2023-05-03T12:57:45.835Z,25.88
2023-05-03T13:00:24.925Z,25.76
2023-05-03T13:10:34.565Z,25.48
2023-05-03T13:13:06.890Z,25.54
2023-05-03T13:15:39.571Z,25.61
2023-05-03T13:18:13.954Z,25.64
2023-05-03T13:20:45.986Z,25.66
2023-05-03T13:23:17.819Z,25.61
2023-05-03T13:25:50.927Z,25.61
2023-05-03T13:28:24.514Z,25.60
2023-05-03T13:30:57.505Z,25.50
2023-05-03T13:33:29.465Z,25.42
2023-05-03T13:36:01.180Z,25.35
2023-05-03T13:38:33.953Z,25.37
2023-05-03T13:41:10.436Z,25.40
2023-05-03T13:43:42.595Z,25.38
2023-05-03T13:46:14.602Z,25.17
2023-05-03T13:48:46.589Z,25.00
2023-05-03T13:51:18.440Z,24.87
2023-05-03T13:53:50.164Z,24.82
2023-05-03T13:56:21.875Z,24.86
2023-05-03T13:58:55.579Z,24.85
2023-05-03T14:01:28.677Z,24.79
2023-05-03T14:04:00.797Z,24.70
2023-05-03T14:06:33.609Z,24.59
2023-05-03T14:09:06.526Z,24.51
2023-05-03T14:11:39.596Z,24.48
2023-05-03T14:14:11.598Z,24.43
2023-05-03T14:16:43.521Z,24.38
2023-05-03T14:19:17.089Z,24.30
2023-05-03T14:21:50.780Z,24.21
2023-05-03T14:24:22.421Z,24.17
2023-05-03T14:26:54.356Z,24.09
2023-05-03T14:29:26.263Z,23.99
2023-05-03T14:31:58.721Z,23.91
2023-05-03T14:34:30.459Z,23.83
2023-05-03T14:37:04.427Z,23.81
2023-05-03T14:39:36.649Z,23.79
2023-05-03T14:42:08.502Z,23.76
2023-05-03T14:44:40.203Z,23.69
2023-05-03T14:47:12.374Z,23.63
2023-05-03T14:49:44.035Z,23.59
2023-05-03T14:52:16.218Z,23.56
2023-05-03T14:54:48.051Z,23.52
2023-05-03T14:57:20.193Z,23.46
2023-05-03T14:59:51.827Z,23.41
2023-05-03T15:02:24.288Z,23.35
2023-05-03T15:04:56.216Z,23.30
2023-05-03T15:07:28.256Z,23.25
2023-05-03T15:12:44.880Z,23.23
2023-05-03T15:15:16.899Z,23.24
2023-05-03T15:17:48.851Z,23.20
2023-05-03T15:20:20.585Z,23.18
2023-05-03T15:22:52.369Z,23.17
2023-05-03T15:25:24.319Z,23.16
2023-05-03T15:27:56.808Z,23.15
2023-05-03T15:33:12.146Z,23.06
2023-05-03T15:35:44.394Z,23.06
2023-05-03T15:38:17.924Z,23.05
2023-05-03T15:40:49.600Z,23.02
2023-05-03T15:43:21.610Z,22.99
2023-05-03T15:45:53.749Z,22.98
2023-05-03T15:48:25.845Z,22.96
2023-05-03T15:50:57.738Z,22.93
2023-05-03T15:53:29.915Z,22.88
2023-05-03T15:56:02.656Z,22.85
2023-05-03T15:58:34.585Z,22.81
2023-05-03T16:01:06.641Z,22.77
2023-05-03T16:03:38.507Z,22.75
2023-05-03T16:06:10.864Z,22.73
2023-05-03T16:08:42.926Z,22.68
2023-05-03T16:11:15.347Z,22.62
2023-05-03T16:13:47.160Z,22.57
2023-05-03T16:16:19.364Z,22.50
2023-05-03T16:18:51.294Z,22.43
2023-05-03T16:21:26.085Z,22.38
2023-05-03T16:24:01.962Z,22.31
2023-05-03T16:26:34.644Z,22.25
2023-05-03T16:29:06.372Z,22.18
2023-05-03T16:31:39.476Z,22.10
2023-05-03T16:34:11.910Z,22.03
2023-05-03T16:36:44.258Z,21.96
2023-05-03T16:39:16.859Z,21.90
2023-05-03T16:41:49.051Z,21.85
2023-05-03T16:44:21.384Z,21.80
2023-05-03T16:46:53.294Z,21.74
2023-05-03T16:49:25.422Z,21.70
2023-05-03T16:51:57.889Z,21.65
2023-05-03T16:54:31.171Z,21.58
2023-05-03T16:57:02.738Z,21.50
2023-05-03T16:59:34.832Z,21.40
2023-05-03T17:02:06.654Z,21.29
2023-05-03T17:04:40.156Z,21.19
2023-05-03T17:07:12.436Z,21.06
2023-05-03T17:09:44.062Z,20.94
2023-05-03T17:12:16.208Z,20.87
2023-05-03T17:14:48.139Z,20.78
2023-05-03T17:17:20.131Z,20.72
2023-05-03T17:19:52.660Z,20.64
2023-05-03T17:22:24.790Z,20.57
2023-05-03T17:24:58.462Z,20.52
2023-05-03T17:27:30.575Z,20.47
2023-05-03T17:30:03.430Z,20.38
2023-05-03T17:32:36.783Z,20.27
2023-05-03T17:35:11.341Z,20.09
2023-05-03T17:37:43.914Z,19.90
2023-05-03T17:40:17.214Z,19.73
2023-05-03T17:42:49.664Z,19.55
2023-05-03T17:45:21.732Z,19.36
2023-05-03T17:47:53.436Z,19.15
2023-05-03T17:50:25.446Z,18.98
2023-05-03T17:52:57.711Z,18.81
2023-05-03T17:55:29.347Z,18.65
2023-05-03T17:58:02.213Z,18.50
2023-05-03T18:00:34.676Z,18.34
2023-05-03T18:03:08.306Z,18.23
2023-05-03T18:05:40.647Z,18.12
2023-05-03T18:08:15.412Z,18.02
2023-05-03T18:10:47.653Z,17.90
2023-05-03T18:13:19.653Z,17.76
2023-05-03T18:15:51.888Z,17.67
2023-05-03T18:18:24.060Z,17.59
2023-05-03T18:21:12.386Z,17.50
2023-05-03T18:23:44.570Z,17.42
2023-05-03T18:26:16.926Z,17.32
2023-05-03T18:28:48.690Z,17.25
2023-05-03T18:31:21.474Z,17.16
2023-05-03T18:33:53.722Z,17.05
2023-05-03T18:36:25.577Z,16.98
2023-05-03T18:38:57.698Z,16.96
2023-05-03T18:41:29.544Z,16.92
2023-05-03T18:44:01.930Z,16.91
2023-05-03T18:46:34.612Z,16.88
2023-05-03T18:49:07.619Z,16.83
2023-05-03T18:51:41.060Z,16.79
2023-05-03T18:54:13.567Z,16.76
2023-05-03T18:56:45.784Z,16.72
2023-05-03T18:59:18.921Z,16.67
2023-05-03T19:01:52.033Z,16.61
2023-05-03T19:04:24.647Z,16.57
2023-05-03T19:06:57.658Z,16.52
2023-05-03T19:09:29.839Z,16.45
2023-05-03T19:12:02.626Z,16.39
2023-05-03T19:14:34.916Z,16.34
2023-05-03T19:17:06.866Z,16.30
2023-05-03T19:19:38.944Z,16.27
2023-05-03T19:22:10.852Z,16.23
2023-05-03T19:24:43.997Z,16.20
2023-05-03T19:27:17.115Z,16.13
2023-05-03T19:29:55.644Z,16.08
2023-05-03T19:32:27.332Z,16.06
2023-05-03T19:35:00.157Z,16.05
2023-05-03T19:37:32.110Z,16.03
2023-05-03T19:40:04.537Z,16.00
2023-05-03T19:42:36.752Z,15.98
2023-05-03T19:45:10.311Z,15.98
2023-05-03T19:47:42.435Z,15.97
2023-05-03T19:50:14.413Z,15.91
2023-05-03T19:52:47.048Z,15.84
2023-05-03T19:55:18.837Z,15.77
2023-05-03T19:57:50.776Z,15.74
2023-05-03T20:00:26.520Z,15.68
2023-05-03T20:02:58.386Z,15.62
2023-05-03T20:05:30.118Z,15.59
2023-05-03T20:08:01.983Z,15.55
2023-05-03T20:10:35.808Z,15.52
2023-05-03T20:13:07.921Z,15.49
2023-05-03T20:15:40.005Z,15.46
2023-05-03T20:18:11.939Z,15.43
2023-05-03T20:20:43.663Z,15.39
2023-05-03T20:23:16.516Z,15.36
2023-05-03T20:25:48.291Z,15.33
2023-05-03T20:28:20.617Z,15.28
2023-05-03T20:30:52.343Z,15.27
2023-05-03T20:33:24.424Z,15.25
2023-05-03T20:35:56.303Z,15.23
2023-05-03T20:38:28.211Z,15.20
2023-05-03T20:41:01.476Z,15.16
2023-05-03T20:43:34.242Z,15.14
2023-05-03T20:46:05.975Z,15.10
2023-05-03T20:48:38.455Z,15.09
2023-05-03T20:51:10.355Z,15.06
2023-05-03T20:53:41.972Z,15.03
2023-05-03T20:56:13.647Z,15.01
2023-05-03T20:58:45.838Z,14.98
2023-05-03T21:01:18.434Z,14.95
2023-05-03T21:03:50.254Z,14.92
2023-05-03T21:06:22.111Z,14.89
2023-05-03T21:08:53.907Z,14.85
2023-05-03T21:11:25.562Z,14.82
2023-05-03T21:13:59.009Z,14.81
2023-05-03T21:16:31.356Z,14.80
2023-05-03T21:19:03.998Z,14.77
2023-05-03T21:21:35.878Z,14.74
2023-05-03T21:24:08.182Z,14.73
2023-05-03T21:26:40.159Z,14.69
2023-05-03T21:29:12.547Z,14.66
2023-05-03T21:31:44.398Z,14.62
2023-05-03T21:34:16.195Z,14.61
2023-05-03T21:36:49.055Z,14.58
2023-05-03T21:39:21.772Z,14.54
2023-05-03T21:41:53.421Z,14.49
2023-05-03T21:44:25.316Z,14.45
2023-05-03T21:46:56.991Z,14.41
2023-05-03T21:49:29.114Z,14.39
2023-05-03T21:52:00.806Z,14.39
2023-05-03T21:54:32.732Z,14.37
2023-05-03T21:57:04.637Z,14.37
2023-05-03T21:59:36.241Z,14.35
2023-05-03T22:02:08.149Z,14.34
2023-05-03T22:04:40.274Z,14.34
2023-05-03T22:07:13.801Z,14.32
2023-05-03T22:09:48.743Z,14.30
2023-05-03T22:12:24.127Z,14.29
2023-05-03T22:14:54.307Z,14.24
2023-05-03T22:17:26.329Z,14.21
2023-05-03T22:19:58.698Z,14.17
2023-05-03T22:22:30.393Z,14.14
2023-05-03T22:25:02.239Z,14.11
2023-05-03T22:27:34.072Z,14.07
2023-05-03T22:30:06.843Z,14.06
2023-05-03T22:32:38.970Z,14.03
2023-05-03T22:35:10.918Z,14.00
2023-05-03T22:37:42.895Z,13.96
2023-05-03T22:40:16.314Z,13.93
2023-05-03T22:42:48.313Z,13.88
2023-05-03T22:45:20.724Z,13.86
2023-05-03T22:47:52.622Z,13.85
2023-05-03T22:50:24.488Z,13.84
2023-05-03T22:52:56.036Z,13.80
2023-05-03T22:55:28.100Z,13.77
2023-05-03T22:57:59.814Z,13.73
2023-05-03T23:00:32.433Z,13.69
2023-05-03T23:03:04.144Z,13.64
2023-05-03T23:05:36.255Z,13.62
2023-05-03T23:08:08.271Z,13.59
2023-05-03T23:10:39.995Z,13.55
2023-05-03T23:13:11.881Z,13.53
2023-05-03T23:15:44.014Z,13.52
2023-05-03T23:18:15.883Z,13.48
2023-05-03T23:20:49.058Z,13.44
2023-05-03T23:23:21.400Z,13.42
2023-05-03T23:25:53.222Z,13.38
2023-05-03T23:28:25.822Z,13.34
2023-05-03T23:30:58.150Z,13.29
2023-05-03T23:33:41.771Z,13.25
2023-05-03T23:36:13.583Z,13.21
2023-05-03T23:38:45.208Z,13.20
2023-05-03T23:41:17.298Z,13.19
2023-05-03T23:43:49.017Z,13.20
2023-05-03T23:46:20.831Z,13.18
2023-05-03T23:48:52.725Z,13.18
2023-05-03T23:51:24.900Z,13.13
2023-05-03T23:53:56.850Z,13.11
2023-05-03T23:56:28.576Z,13.10
2023-05-03T23:59:01.839Z,13.08
